Time;durP1;ratioP1;P1;durP2;ratioP2;P2;SDS_P1;SDS_P2;PMS_P1;PMS_P2;Temp;Humidity;BMP_temperature;BMP_pressure;BME280_temperature;BME280_humidity;BME280_pressure;Samples;Min_cycle;Max_cycle;Signal;HPM_P1;HPM_P2
2023/12/03 00:04:01;;;;;;;117.23;41.50;;;;;;;;;;10495087;28;20032;-79
2023/12/03 00:09:02;;;;;;;114.67;46.17;;;;;;;;;;10488870;28;20749;-78
2023/12/03 00:14:03;;;;;;;111.47;41.40;;;;;;;;;;10493876;28;20051;-78
2023/12/03 00:19:04;;;;;;;110.30;41.30;;;;;;;;;;10506962;28;20495;-78
2023/12/03 00:24:06;;;;;;;114.63;43.70;;;;;;;;;;10489790;28;20119;-78
2023/12/03 00:29:07;;;;;;;132.53;51.83;;;;;;;;;;10492699;28;20043;-78
2023/12/03 00:34:08;;;;;;;132.47;51.57;;;;;;;;;;10484123;28;20044;-78
2023/12/03 00:39:09;;;;;;;137.73;52.63;;;;;;;;;;10486356;28;20063;-78
2023/12/03 00:44:10;;;;;;;120.30;49.53;;;;;;;;;;10485350;28;20020;-78
2023/12/03 00:49:11;;;;;;;120.77;48.47;;;;;;;;;;10489277;28;20032;-79
2023/12/03 00:54:12;;;;;;;111.57;44.10;;;;;;;;;;10484377;28;20134;-78
2023/12/03 00:59:13;;;;;;;100.57;42.23;;;;;;;;;;10493197;28;21118;-78
2023/12/03 01:04:14;;;;;;;91.60;38.43;;;;;;;;;;10493600;28;20028;-77
2023/12/03 01:09:15;;;;;;;83.17;36.23;;;;;;;;;;10492871;28;20031;-78
2023/12/03 01:14:16;;;;;;;73.03;32.50;;;;;;;;;;10490591;28;20044;-78
2023/12/03 01:19:17;;;;;;;70.20;30.07;;;;;;;;;;10503327;28;20047;-79
2023/12/03 01:24:18;;;;;;;69.37;29.43;;;;;;;;;;10485447;28;20032;-79
2023/12/03 01:29:19;;;;;;;63.97;26.67;;;;;;;;;;10491179;28;20036;-78
2023/12/03 01:34:20;;;;;;;70.77;29.33;;;;;;;;;;10491220;28;20036;-78
2023/12/03 01:39:21;;;;;;;56.83;24.17;;;;;;;;;;10487774;28;20028;-79
2023/12/03 01:44:22;;;;;;;55.53;25.07;;;;;;;;;;10484854;28;20059;-78
2023/12/03 01:49:23;;;;;;;46.70;20.47;;;;;;;;;;10483742;28;20036;-79
2023/12/03 01:54:36;;;;;;;50.40;22.73;;;;;;;;;;10476029;28;20051;-78
2023/12/03 01:59:37;;;;;;;48.20;21.97;;;;;;;;;;10501376;28;20032;-78
2023/12/03 02:04:38;;;;;;;47.53;21.30;;;;;;;;;;10486452;28;20056;-78
2023/12/03 02:09:39;;;;;;;49.43;21.50;;;;;;;;;;10490409;28;20032;-78
2023/12/03 02:14:40;;;;;;;40.57;18.93;;;;;;;;;;10488778;28;20040;-78
2023/12/03 02:19:41;;;;;;;43.30;20.87;;;;;;;;;;10488487;28;20082;-77
2023/12/03 02:24:42;;;;;;;47.97;20.73;;;;;;;;;;10478434;28;20058;-78
2023/12/03 02:29:47;;;;;;;45.83;20.93;;;;;;;;;;10486382;28;20036;-78
2023/12/03 02:34:48;;;;;;;44.70;21.50;;;;;;;;;;10480722;28;20041;-78
2023/12/03 02:39:49;;;;;;;47.30;19.07;;;;;;;;;;10487940;28;20025;-78
2023/12/03 02:44:50;;;;;;;43.73;20.53;;;;;;;;;;10487579;28;20052;-79
2023/12/03 02:49:51;;;;;;;46.23;21.97;;;;;;;;;;10482691;28;20108;-78
2023/12/03 02:54:53;;;;;;;43.17;19.77;;;;;;;;;;10489046;28;20040;-78
2023/12/03 02:59:54;;;;;;;39.80;17.47;;;;;;;;;;10488296;28;20499;-79
2023/12/03 03:04:55;;;;;;;40.90;18.17;;;;;;;;;;10485805;28;20062;-78
2023/12/03 03:09:56;;;;;;;35.20;16.53;;;;;;;;;;10478215;28;20387;-78
2023/12/03 03:14:57;;;;;;;37.10;17.80;;;;;;;;;;10476363;28;20048;-79
2023/12/03 03:20:05;;;;;;;35.23;16.87;;;;;;;;;;10470159;28;20029;-78
2023/12/03 03:25:13;;;;;;;30.50;14.10;;;;;;;;;;10483034;28;20035;-78
2023/12/03 03:30:14;;;;;;;31.70;15.73;;;;;;;;;;10495919;28;20438;-79
2023/12/03 03:35:15;;;;;;;38.67;16.17;;;;;;;;;;10477813;28;20549;-79
2023/12/03 03:40:16;;;;;;;27.43;13.30;;;;;;;;;;10496239;28;20388;-78
2023/12/03 03:45:17;;;;;;;26.47;12.53;;;;;;;;;;10487331;28;20044;-78
2023/12/03 03:50:19;;;;;;;25.97;12.10;;;;;;;;;;10495198;28;20035;-78
2023/12/03 03:55:20;;;;;;;27.17;12.63;;;;;;;;;;10495799;28;20377;-78
2023/12/03 04:00:21;;;;;;;24.80;11.03;;;;;;;;;;10493511;28;20040;-78
2023/12/03 04:05:23;;;;;;;25.03;12.73;;;;;;;;;;10495534;28;20140;-78
2023/12/03 04:10:24;;;;;;;44.23;17.90;;;;;;;;;;10495325;28;20543;-79
2023/12/03 04:15:25;;;;;;;38.93;17.53;;;;;;;;;;10492649;28;20032;-79
2023/12/03 04:20:26;;;;;;;46.33;18.53;;;;;;;;;;10483872;28;20460;-78
2023/12/03 04:25:28;;;;;;;46.17;19.53;;;;;;;;;;10494434;28;20086;-78
2023/12/03 04:30:28;;;;;;;55.63;20.60;;;;;;;;;;10492720;28;20115;-78
2023/12/03 04:35:30;;;;;;;56.77;21.83;;;;;;;;;;10495106;28;20081;-78
2023/12/03 04:40:31;;;;;;;56.10;20.53;;;;;;;;;;10494413;28;20036;-78
2023/12/03 04:45:32;;;;;;;53.67;19.93;;;;;;;;;;10488683;28;20145;-78
2023/12/03 04:50:33;;;;;;;43.50;18.73;;;;;;;;;;10489639;28;20033;-78
2023/12/03 04:55:34;;;;;;;40.63;17.37;;;;;;;;;;10493050;28;20106;-77
2023/12/03 05:00:35;;;;;;;36.83;17.23;;;;;;;;;;10491696;28;20082;-79
2023/12/03 05:05:36;;;;;;;36.33;14.57;;;;;;;;;;10493535;28;20078;-77
2023/12/03 05:10:37;;;;;;;39.27;17.10;;;;;;;;;;10493228;28;20025;-78
2023/12/03 05:15:38;;;;;;;36.97;16.30;;;;;;;;;;10482775;28;20423;-78
2023/12/03 05:20:47;;;;;;;39.53;16.77;;;;;;;;;;10491920;28;20396;-79
2023/12/03 05:25:48;;;;;;;39.10;16.93;;;;;;;;;;10485888;28;20116;-78
2023/12/03 05:30:49;;;;;;;36.07;16.63;;;;;;;;;;10496330;28;20066;-78
2023/12/03 05:35:50;;;;;;;40.80;18.23;;;;;;;;;;10492717;28;20033;-79
2023/12/03 05:40:51;;;;;;;37.70;16.67;;;;;;;;;;10488452;28;20042;-78
2023/12/03 05:46:06;;;;;;;34.50;15.10;;;;;;;;;;10475257;28;20048;-78
2023/12/03 05:51:10;;;;;;;31.77;15.20;;;;;;;;;;10493906;28;20119;-78
2023/12/03 05:56:11;;;;;;;32.23;15.33;;;;;;;;;;10490269;28;20036;-78
2023/12/03 06:01:21;;;;;;;44.83;17.63;;;;;;;;;;10491819;28;20028;-78
2023/12/03 06:06:22;;;;;;;32.43;14.80;;;;;;;;;;10497420;28;20039;-78
2023/12/03 06:11:23;;;;;;;36.07;15.73;;;;;;;;;;10489237;28;20043;-79
2023/12/03 06:16:24;;;;;;;32.63;15.50;;;;;;;;;;10476573;28;20067;-78
2023/12/03 06:21:44;;;;;;;28.73;13.53;;;;;;;;;;10254413;27;8212565;-80
2023/12/03 06:26:45;;;;;;;27.00;13.60;;;;;;;;;;10511397;28;20043;-80
2023/12/03 06:31:47;;;;;;;29.97;13.43;;;;;;;;;;10523255;28;20054;-79
2023/12/03 06:36:48;;;;;;;35.77;17.07;;;;;;;;;;10524860;28;20085;-79
2023/12/03 06:41:49;;;;;;;45.67;20.40;;;;;;;;;;10524277;28;20061;-78
2023/12/03 06:46:50;;;;;;;49.57;21.43;;;;;;;;;;10523689;28;20047;-79
2023/12/03 06:51:51;;;;;;;46.60;22.00;;;;;;;;;;10524261;28;20059;-79
2023/12/03 06:56:52;;;;;;;53.43;23.17;;;;;;;;;;10523639;28;20040;-79
2023/12/03 07:01:53;;;;;;;48.83;20.63;;;;;;;;;;10523118;28;20040;-79
2023/12/03 07:06:54;;;;;;;49.30;21.93;;;;;;;;;;10523451;28;20376;-79
2023/12/03 07:11:55;;;;;;;64.70;27.00;;;;;;;;;;10523458;28;20093;-79
2023/12/03 07:16:56;;;;;;;58.20;27.33;;;;;;;;;;10523159;28;20056;-79
2023/12/03 07:21:57;;;;;;;55.27;24.27;;;;;;;;;;10560037;28;20836;-79
2023/12/03 07:26:58;;;;;;;52.10;23.33;;;;;;;;;;10560297;28;20028;-80
2023/12/03 07:32:00;;;;;;;54.83;23.53;;;;;;;;;;10531919;28;20036;-80
2023/12/03 07:37:02;;;;;;;46.73;19.70;;;;;;;;;;10525500;28;20400;-80
2023/12/03 07:42:03;;;;;;;52.17;20.90;;;;;;;;;;10534998;28;20040;-80
2023/12/03 07:47:04;;;;;;;42.63;20.43;;;;;;;;;;10522313;28;20024;-80
2023/12/03 07:52:05;;;;;;;55.93;25.80;;;;;;;;;;10527868;28;20075;-80
2023/12/03 07:57:06;;;;;;;64.07;26.60;;;;;;;;;;10533367;28;20600;-80
2023/12/03 08:02:08;;;;;;;65.13;27.83;;;;;;;;;;10521912;28;20149;-79
2023/12/03 08:07:09;;;;;;;72.47;30.30;;;;;;;;;;10514957;28;20031;-79
2023/12/03 08:12:10;;;;;;;67.00;28.60;;;;;;;;;;10507478;28;20357;-79
2023/12/03 08:17:12;;;;;;;55.33;24.50;;;;;;;;;;10496414;28;20059;-78
2023/12/03 08:22:13;;;;;;;49.00;22.90;;;;;;;;;;10532136;28;20028;-79
2023/12/03 08:27:14;;;;;;;61.30;26.60;;;;;;;;;;10535698;28;20020;-81
2023/12/03 08:32:18;;;;;;;63.83;26.30;;;;;;;;;;10522559;28;20032;-80
2023/12/03 08:37:19;;;;;;;49.37;21.80;;;;;;;;;;10526372;28;20036;-82
2023/12/03 08:42:22;;;;;;;50.97;21.93;;;;;;;;;;10531701;28;20032;-80
2023/12/03 08:47:23;;;;;;;57.90;26.13;;;;;;;;;;10523276;28;20024;-79
2023/12/03 08:52:24;;;;;;;67.87;29.63;;;;;;;;;;10519349;28;20394;-81
2023/12/03 08:57:25;;;;;;;69.00;30.73;;;;;;;;;;10532698;28;20040;-80
2023/12/03 09:02:27;;;;;;;108.93;45.50;;;;;;;;;;10527424;28;20143;-79
2023/12/03 09:07:30;;;;;;;70.13;32.83;;;;;;;;;;10525995;28;20035;-80
2023/12/03 09:12:32;;;;;;;46.60;21.67;;;;;;;;;;10515106;28;20463;-80
2023/12/03 09:17:33;;;;;;;50.57;23.30;;;;;;;;;;10529652;28;20052;-79
2023/12/03 09:22:35;;;;;;;51.33;24.13;;;;;;;;;;10523483;28;20086;-81
2023/12/03 09:27:36;;;;;;;49.33;22.70;;;;;;;;;;10525754;28;20024;-80
2023/12/03 09:32:37;;;;;;;52.53;22.83;;;;;;;;;;10507909;28;20035;-81
2023/12/03 09:37:38;;;;;;;41.73;20.00;;;;;;;;;;10530000;28;20036;-79
2023/12/03 09:42:40;;;;;;;49.57;23.13;;;;;;;;;;10525551;28;20902;-79
2023/12/03 09:47:53;;;;;;;37.07;16.70;;;;;;;;;;10528125;28;20024;-81
2023/12/03 09:52:54;;;;;;;63.07;30.27;;;;;;;;;;10499314;28;20028;-79
2023/12/03 09:57:57;;;;;;;62.47;28.10;;;;;;;;;;10503731;28;20044;-81
2023/12/03 10:02:58;;;;;;;36.77;16.13;;;;;;;;;;10519092;28;20115;-79
2023/12/03 10:08:00;;;;;;;66.37;27.50;;;;;;;;;;10518522;28;20115;-79
2023/12/03 10:13:02;;;;;;;62.67;26.50;;;;;;;;;;10505712;28;20032;-79
2023/12/03 10:18:03;;;;;;;63.03;25.60;;;;;;;;;;10510124;28;20777;-79
2023/12/03 10:23:13;;;;;;;32.20;14.53;;;;;;;;;;10514238;28;20035;-79
2023/12/03 10:28:22;;;;;;;33.80;16.17;;;;;;;;;;10509406;28;20040;-80
2023/12/03 10:33:23;;;;;;;35.77;16.30;;;;;;;;;;10522881;28;20036;-79
2023/12/03 10:38:24;;;;;;;38.87;17.07;;;;;;;;;;10522834;28;20032;-78
2023/12/03 10:43:26;;;;;;;38.00;17.17;;;;;;;;;;10520541;28;20111;-79
2023/12/03 10:48:30;;;;;;;32.67;14.93;;;;;;;;;;10512346;28;20035;-79
2023/12/03 10:53:33;;;;;;;31.77;15.17;;;;;;;;;;10530256;28;20374;-79
2023/12/03 10:58:36;;;;;;;52.87;24.80;;;;;;;;;;10511875;28;20031;-81
2023/12/03 11:03:56;;;;;;;49.73;23.53;;;;;;;;;;10512401;28;20352;-83
2023/12/03 11:08:57;;;;;;;37.30;17.47;;;;;;;;;;10538245;28;20036;-79
2023/12/03 11:14:01;;;;;;;48.33;23.37;;;;;;;;;;10537705;28;20024;-79
2023/12/03 11:19:11;;;;;;;43.37;20.10;;;;;;;;;;10535824;28;20059;-81
2023/12/03 11:24:25;;;;;;;41.77;19.77;;;;;;;;;;10538207;28;20047;-81
2023/12/03 11:29:45;;;;;;;48.10;22.03;;;;;;;;;;10536354;28;20047;-79
2023/12/03 11:35:02;;;;;;;32.33;15.70;;;;;;;;;;10538347;28;20028;-80
2023/12/03 11:40:11;;;;;;;44.57;20.00;;;;;;;;;;10536648;28;20399;-79
2023/12/03 11:45:17;;;;;;;41.20;17.63;;;;;;;;;;10519072;28;20081;-79
2023/12/03 11:50:18;;;;;;;;;;;;;;;;;;10537276;28;20028;-79
2023/12/03 11:55:20;;;;;;;45.03;20.90;;;;;;;;;;10535826;28;19946;-81
2023/12/03 12:00:24;;;;;;;81.90;35.70;;;;;;;;;;10534462;28;20568;-79
2023/12/03 12:05:34;;;;;;;60.13;25.93;;;;;;;;;;10535513;28;20031;-79
2023/12/03 12:10:35;;;;;;;72.27;29.00;;;;;;;;;;10534742;28;20028;-79
2023/12/03 12:15:37;;;;;;;72.97;29.57;;;;;;;;;;10535171;28;20367;-79
2023/12/03 12:20:38;;;;;;;84.10;35.33;;;;;;;;;;10519607;28;20495;-79
2023/12/03 12:25:40;;;;;;;68.53;29.10;;;;;;;;;;10533536;28;20069;-80
2023/12/03 12:30:41;;;;;;;61.23;25.57;;;;;;;;;;10521865;28;20016;-81
2023/12/03 12:35:42;;;;;;;58.17;25.37;;;;;;;;;;10514507;28;20463;-78
2023/12/03 12:40:53;;;;;;;51.20;22.40;;;;;;;;;;10524447;28;20041;-80
2023/12/03 12:45:56;;;;;;;44.20;20.53;;;;;;;;;;10514406;28;20081;-78
2023/12/03 12:51:00;;;;;;;46.33;19.50;;;;;;;;;;10510361;28;20062;-80
2023/12/03 12:56:01;;;;;;;44.87;19.00;;;;;;;;;;10532404;28;20093;-79
2023/12/03 13:01:02;;;;;;;48.00;18.60;;;;;;;;;;10518804;28;20097;-81
2023/12/03 13:06:03;;;;;;;50.73;20.00;;;;;;;;;;10518581;28;20044;-79
2023/12/03 13:11:04;;;;;;;51.50;21.17;;;;;;;;;;10502015;28;20056;-79
2023/12/03 13:16:09;;;;;;;51.20;23.20;;;;;;;;;;10492217;28;20479;-79
2023/12/03 13:21:17;;;;;;;60.60;25.97;;;;;;;;;;10461362;28;20393;-79
2023/12/03 13:26:18;;;;;;;46.37;20.20;;;;;;;;;;10481887;28;20937;-80
2023/12/03 13:31:19;;;;;;;47.03;21.30;;;;;;;;;;10476676;28;20036;-79
2023/12/03 13:36:20;;;;;;;40.97;18.60;;;;;;;;;;10481930;28;20103;-80
2023/12/03 13:41:21;;;;;;;39.17;18.70;;;;;;;;;;10472015;28;20068;-80
2023/12/03 13:46:23;;;;;;;92.30;35.90;;;;;;;;;;10472373;28;20032;-80
2023/12/03 13:51:25;;;;;;;56.43;22.40;;;;;;;;;;10478442;28;20032;-80
2023/12/03 13:56:27;;;;;;;69.73;28.00;;;;;;;;;;10468256;28;20537;-84
2023/12/03 14:01:28;;;;;;;40.40;20.23;;;;;;;;;;10481388;28;20040;-82
2023/12/03 14:06:29;;;;;;;63.63;27.87;;;;;;;;;;10484533;28;20036;-80
2023/12/03 14:11:31;;;;;;;51.67;24.53;;;;;;;;;;10472472;28;20099;-80
2023/12/03 14:16:33;;;;;;;54.10;26.37;;;;;;;;;;10475928;28;20043;-82
2023/12/03 14:21:36;;;;;;;61.63;29.00;;;;;;;;;;10509225;28;20430;-80
2023/12/03 14:26:37;;;;;;;63.70;30.33;;;;;;;;;;10519530;28;20035;-80
2023/12/03 14:31:38;;;;;;;84.17;36.10;;;;;;;;;;10529693;28;20039;-82
2023/12/03 14:36:45;;;;;;;82.97;32.53;;;;;;;;;;10521826;28;20107;-81
2023/12/03 14:41:47;;;;;;;59.10;22.07;;;;;;;;;;10503829;28;20051;-82
2023/12/03 14:46:51;;;;;;;69.77;25.73;;;;;;;;;;10534943;28;20140;-80
2023/12/03 14:51:52;;;;;;;78.13;30.77;;;;;;;;;;10508624;28;20097;-83
2023/12/03 14:56:53;;;;;;;109.03;44.43;;;;;;;;;;10532947;28;20061;-82
2023/12/03 15:01:54;;;;;;;157.03;64.23;;;;;;;;;;10516953;28;20450;-81
2023/12/03 15:06:58;;;;;;;102.80;42.30;;;;;;;;;;10520031;28;20032;-81
2023/12/03 15:11:59;;;;;;;99.77;40.43;;;;;;;;;;10519984;28;20032;-81
2023/12/03 15:17:00;;;;;;;109.43;45.47;;;;;;;;;;10489517;28;20521;-85
2023/12/03 15:22:02;;;;;;;184.77;79.57;;;;;;;;;;10531605;28;20067;-81
2023/12/03 15:27:04;;;;;;;121.03;54.10;;;;;;;;;;10534759;28;20033;-81
2023/12/03 15:32:05;;;;;;;93.53;40.47;;;;;;;;;;10534579;28;20036;-82
2023/12/03 15:37:12;;;;;;;100.27;40.97;;;;;;;;;;10522475;28;20023;-80
2023/12/03 15:42:13;;;;;;;90.70;40.23;;;;;;;;;;10517709;28;20032;-81
2023/12/03 15:47:21;;;;;;;111.87;49.33;;;;;;;;;;10536706;28;20020;-81
2023/12/03 15:52:22;;;;;;;115.70;51.63;;;;;;;;;;10505833;28;20472;-82
2023/12/03 15:57:24;;;;;;;88.57;39.03;;;;;;;;;;10536005;28;20459;-82
2023/12/03 16:02:26;;;;;;;101.97;42.67;;;;;;;;;;10535554;28;20024;-81
2023/12/03 16:07:28;;;;;;;119.03;49.47;;;;;;;;;;10525644;28;20364;-80
2023/12/03 16:12:30;;;;;;;114.53;48.63;;;;;;;;;;10535752;28;20232;-82
2023/12/03 16:17:31;;;;;;;107.97;45.33;;;;;;;;;;10524882;28;20047;-81
2023/12/03 16:22:32;;;;;;;87.10;39.23;;;;;;;;;;10530988;28;20083;-82
2023/12/03 16:27:41;;;;;;;106.23;46.73;;;;;;;;;;10525767;28;20193;-81
2023/12/03 16:32:43;;;;;;;123.97;55.63;;;;;;;;;;10529749;28;20577;-82
2023/12/03 16:37:44;;;;;;;129.37;57.63;;;;;;;;;;10531066;28;20050;-84
2023/12/03 16:42:45;;;;;;;129.93;61.17;;;;;;;;;;10533432;28;20036;-81
2023/12/03 16:47:47;;;;;;;131.03;58.07;;;;;;;;;;10526409;28;20036;-80
2023/12/03 16:52:49;;;;;;;125.47;55.80;;;;;;;;;;10514690;28;20036;-83
2023/12/03 16:57:50;;;;;;;98.80;43.13;;;;;;;;;;10526199;28;20766;-81
2023/12/03 17:02:57;;;;;;;94.87;43.53;;;;;;;;;;10527427;28;20032;-82
2023/12/03 17:08:04;;;;;;;91.03;41.97;;;;;;;;;;10512781;28;20059;-83
2023/12/03 17:13:06;;;;;;;76.57;36.00;;;;;;;;;;10510563;28;20067;-82
2023/12/03 17:18:07;;;;;;;79.23;36.33;;;;;;;;;;10525958;28;20415;-84
2023/12/03 17:23:08;;;;;;;95.83;43.77;;;;;;;;;;10521262;28;20048;-83
2023/12/03 17:28:10;;;;;;;121.60;48.47;;;;;;;;;;10507129;28;20038;-83
2023/12/03 17:33:11;;;;;;;96.10;42.50;;;;;;;;;;10509146;28;20073;-82
2023/12/03 17:38:12;;;;;;;92.37;42.07;;;;;;;;;;10494356;28;20497;-81
2023/12/03 17:43:13;;;;;;;101.17;44.97;;;;;;;;;;10517035;28;20111;-84
2023/12/03 17:48:14;;;;;;;107.07;46.43;;;;;;;;;;10525116;28;20102;-83
2023/12/03 17:53:16;;;;;;;87.20;38.57;;;;;;;;;;10527354;28;20451;-84
2023/12/03 17:58:18;;;;;;;90.40;40.23;;;;;;;;;;10513068;28;20449;-83
2023/12/03 18:03:21;;;;;;;85.90;40.57;;;;;;;;;;10524321;28;20032;-82
2023/12/03 18:08:25;;;;;;;91.47;41.97;;;;;;;;;;10511141;28;20123;-84
2023/12/03 18:13:28;;;;;;;91.90;44.43;;;;;;;;;;10507294;28;20037;-82
2023/12/03 18:18:29;;;;;;;117.40;51.43;;;;;;;;;;10499267;28;20084;-81
2023/12/03 18:23:30;;;;;;;203.20;85.10;;;;;;;;;;10510759;28;20032;-83
2023/12/03 18:28:31;;;;;;;281.83;117.60;;;;;;;;;;10517179;28;20460;-82
2023/12/03 18:33:33;;;;;;;159.90;71.33;;;;;;;;;;10508614;28;20677;-82
2023/12/03 18:38:35;;;;;;;139.97;64.10;;;;;;;;;;10486121;28;20048;-81
2023/12/03 18:43:36;;;;;;;131.07;59.07;;;;;;;;;;10489994;28;20036;-83
2023/12/03 18:48:37;;;;;;;125.97;57.80;;;;;;;;;;10512571;28;20024;-82
2023/12/03 18:53:45;;;;;;;125.80;57.20;;;;;;;;;;10519101;28;20032;-84
2023/12/03 18:58:47;;;;;;;128.07;56.57;;;;;;;;;;10530056;28;20035;-83
2023/12/03 19:04:13;;;;;;;135.87;60.07;;;;;;;;;;10524570;28;20051;-84
2023/12/03 19:09:15;;;;;;;188.57;77.30;;;;;;;;;;10482710;28;20107;-83
2023/12/03 19:14:19;;;;;;;213.87;90.03;;;;;;;;;;10520977;28;20024;-82
2023/12/03 19:19:20;;;;;;;227.57;99.87;;;;;;;;;;10511986;28;20064;-82
2023/12/03 19:24:21;;;;;;;286.17;120.40;;;;;;;;;;10520098;28;20040;-81
2023/12/03 19:29:23;;;;;;;285.40;114.73;;;;;;;;;;10536194;28;20093;-81
2023/12/03 19:34:24;;;;;;;285.53;117.00;;;;;;;;;;10533138;28;20031;-81
2023/12/03 19:39:26;;;;;;;209.53;88.23;;;;;;;;;;10523270;28;20034;-83
2023/12/03 19:44:28;;;;;;;236.17;102.17;;;;;;;;;;10535067;28;20040;-81
2023/12/03 19:49:29;;;;;;;192.17;86.23;;;;;;;;;;10534720;28;20084;-81
2023/12/03 19:54:30;;;;;;;108.43;49.07;;;;;;;;;;10535787;28;20024;-83
2023/12/03 19:59:31;;;;;;;90.30;40.07;;;;;;;;;;10532298;28;20043;-82
2023/12/03 20:04:39;;;;;;;120.03;50.37;;;;;;;;;;10512349;28;20035;-82
2023/12/03 20:09:40;;;;;;;119.67;51.27;;;;;;;;;;10514989;28;20073;-81
2023/12/03 20:14:41;;;;;;;118.17;57.17;;;;;;;;;;10502129;28;20055;-82
2023/12/03 20:19:49;;;;;;;157.10;68.77;;;;;;;;;;10530423;28;20052;-81
2023/12/03 20:24:50;;;;;;;149.77;68.63;;;;;;;;;;10524339;28;20028;-82
2023/12/03 20:29:51;;;;;;;168.53;71.90;;;;;;;;;;10508659;28;20085;-82
2023/12/03 20:34:53;;;;;;;141.23;60.30;;;;;;;;;;10526339;28;20071;-82
2023/12/03 20:39:55;;;;;;;126.90;52.27;;;;;;;;;;10510786;28;20106;-82
2023/12/03 20:44:59;;;;;;;165.10;65.57;;;;;;;;;;10521031;28;20558;-82
2023/12/03 20:50:02;;;;;;;169.17;65.20;;;;;;;;;;10511691;28;20123;-82
2023/12/03 20:55:03;;;;;;;154.20;61.10;;;;;;;;;;10510784;28;20039;-82
2023/12/03 21:00:05;;;;;;;172.63;64.67;;;;;;;;;;10532229;28;20043;-83
2023/12/03 21:05:08;;;;;;;161.30;63.37;;;;;;;;;;10529366;28;20032;-82
2023/12/03 21:10:10;;;;;;;151.53;56.70;;;;;;;;;;10515800;28;20507;-82
2023/12/03 21:15:13;;;;;;;217.13;79.10;;;;;;;;;;10490789;28;20028;-82
2023/12/03 21:20:14;;;;;;;193.90;68.13;;;;;;;;;;10519875;28;20086;-83
2023/12/03 21:25:15;;;;;;;155.67;59.23;;;;;;;;;;10532424;28;20028;-82
2023/12/03 21:30:16;;;;;;;140.27;54.73;;;;;;;;;;10525070;28;20040;-82
2023/12/03 21:35:18;;;;;;;132.33;52.97;;;;;;;;;;10521609;28;20074;-82
2023/12/03 21:40:19;;;;;;;115.57;47.83;;;;;;;;;;10507270;28;20071;-82
2023/12/03 21:45:20;;;;;;;130.63;51.90;;;;;;;;;;10530808;28;20043;-82
2023/12/03 21:50:21;;;;;;;146.43;56.10;;;;;;;;;;10517365;28;20035;-82
2023/12/03 21:55:22;;;;;;;107.50;46.77;;;;;;;;;;10531794;28;20036;-83
2023/12/03 22:00:23;;;;;;;114.07;47.33;;;;;;;;;;10514589;28;20044;-82
2023/12/03 22:05:24;;;;;;;110.50;48.77;;;;;;;;;;10529592;28;20063;-82
2023/12/03 22:10:25;;;;;;;131.07;50.43;;;;;;;;;;10505600;28;20033;-83
2023/12/03 22:15:27;;;;;;;111.60;45.23;;;;;;;;;;10527926;28;20026;-82
2023/12/03 22:20:28;;;;;;;107.27;42.77;;;;;;;;;;10517873;28;20060;-81
2023/12/03 22:25:29;;;;;;;103.73;45.73;;;;;;;;;;10530409;28;20036;-81
2023/12/03 22:30:30;;;;;;;112.27;47.37;;;;;;;;;;10526237;28;20387;-81
2023/12/03 22:35:31;;;;;;;104.23;45.97;;;;;;;;;;10529722;28;20109;-83
2023/12/03 22:40:32;;;;;;;106.00;45.97;;;;;;;;;;10521081;28;20538;-82
2023/12/03 22:45:33;;;;;;;108.37;47.77;;;;;;;;;;10519092;28;20032;-81
2023/12/03 22:50:34;;;;;;;117.43;49.77;;;;;;;;;;10523229;28;20352;-82
2023/12/03 22:55:35;;;;;;;109.53;47.70;;;;;;;;;;10528799;28;20391;-81
2023/12/03 23:00:36;;;;;;;121.30;52.90;;;;;;;;;;10508744;28;20038;-82
2023/12/03 23:05:37;;;;;;;113.67;50.57;;;;;;;;;;10536777;28;20036;-82
2023/12/03 23:10:39;;;;;;;113.80;46.53;;;;;;;;;;10538605;28;20032;-81
2023/12/03 23:15:40;;;;;;;116.77;52.17;;;;;;;;;;10527655;28;20024;-81
2023/12/03 23:20:42;;;;;;;116.50;51.20;;;;;;;;;;10528202;28;20060;-83
2023/12/03 23:25:43;;;;;;;110.53;47.73;;;;;;;;;;10537753;28;20127;-81
2023/12/03 23:30:44;;;;;;;104.17;44.13;;;;;;;;;;10528172;28;20376;-83
2023/12/03 23:35:45;;;;;;;103.43;47.47;;;;;;;;;;10529506;28;20050;-82
2023/12/03 23:40:46;;;;;;;95.53;43.40;;;;;;;;;;10532099;28;20070;-83
2023/12/03 23:45:47;;;;;;;90.80;43.43;;;;;;;;;;10535409;28;20061;-84
2023/12/03 23:50:48;;;;;;;93.70;42.43;;;;;;;;;;10521441;28;20039;-82
2023/12/03 23:55:49;;;;;;;94.83;42.87;;;;;;;;;;10523632;28;20510;-82
